sensor_id;sensor_type;location;lat;lon;timestamp;temperature;humidity
13686;DHT22;6915;48.296;8.874;2023-07-20T00:01:26;19.30;99.90
13686;DHT22;6915;48.296;8.874;2023-07-20T00:03:56;19.30;99.90
13686;DHT22;6915;48.296;8.874;2023-07-20T00:06:25;19.30;99.90
13686;DHT22;6915;48.296;8.874;2023-07-20T00:08:55;19.30;99.90
13686;DHT22;6915;48.296;8.874;2023-07-20T00:11:27;19.30;99.90
13686;DHT22;6915;48.296;8.874;2023-07-20T00:13:56;19.30;99.90
13686;DHT22;6915;48.296;8.874;2023-07-20T00:16:24;19.30;99.90
13686;DHT22;6915;48.296;8.874;2023-07-20T00:18:53;19.20;99.90
13686;DHT22;6915;48.296;8.874;2023-07-20T00:21:23;19.20;99.90
13686;DHT22;6915;48.296;8.874;2023-07-20T00:23:52;19.30;99.90
13686;DHT22;6915;48.296;8.874;2023-07-20T00:26:21;19.30;99.90
13686;DHT22;6915;48.296;8.874;2023-07-20T00:28:51;19.30;99.90
13686;DHT22;6915;48.296;8.874;2023-07-20T00:31:20;19.20;99.90
13686;DHT22;6915;48.296;8.874;2023-07-20T00:33:49;19.10;99.90
13686;DHT22;6915;48.296;8.874;2023-07-20T00:36:18;18.90;99.90
13686;DHT22;6915;48.296;8.874;2023-07-20T00:38:47;18.80;99.90
13686;DHT22;6915;48.296;8.874;2023-07-20T00:41:16;18.70;99.90
13686;DHT22;6915;48.296;8.874;2023-07-20T00:43:45;18.70;99.90
13686;DHT22;6915;48.296;8.874;2023-07-20T00:46:13;18.60;99.90
13686;DHT22;6915;48.296;8.874;2023-07-20T00:48:43;18.50;99.90
13686;DHT22;6915;48.296;8.874;2023-07-20T00:51:12;18.40;99.90
13686;DHT22;6915;48.296;8.874;2023-07-20T00:53:41;18.40;99.90
13686;DHT22;6915;48.296;8.874;2023-07-20T00:56:11;18.30;99.90
13686;DHT22;6915;48.296;8.874;2023-07-20T00:58:40;18.40;99.90
13686;DHT22;6915;48.296;8.874;2023-07-20T01:01:08;18.30;99.90
13686;DHT22;6915;48.296;8.874;2023-07-20T01:03:37;18.30;99.90
13686;DHT22;6915;48.296;8.874;2023-07-20T01:06:12;18.30;99.90
13686;DHT22;6915;48.296;8.874;2023-07-20T01:08:47;18.40;99.90
13686;DHT22;6915;48.296;8.874;2023-07-20T01:11:26;18.40;99.90
13686;DHT22;6915;48.296;8.874;2023-07-20T01:13:57;18.40;99.90
13686;DHT22;6915;48.296;8.874;2023-07-20T01:16:26;18.30;99.90
13686;DHT22;6915;48.296;8.874;2023-07-20T01:18:55;18.30;99.90
13686;DHT22;6915;48.296;8.874;2023-07-20T01:21:28;18.30;99.90
13686;DHT22;6915;48.296;8.874;2023-07-20T01:24:45;18.20;99.90
13686;DHT22;6915;48.296;8.874;2023-07-20T01:28:01;18.20;99.90
13686;DHT22;6915;48.296;8.874;2023-07-20T01:30:59;18.10;99.90
13686;DHT22;6915;48.296;8.874;2023-07-20T01:33:33;18.10;99.90
13686;DHT22;6915;48.296;8.874;2023-07-20T01:36:03;18.00;99.90
13686;DHT22;6915;48.296;8.874;2023-07-20T01:38:33;18.00;99.90
13686;DHT22;6915;48.296;8.874;2023-07-20T01:41:02;18.00;99.90
13686;DHT22;6915;48.296;8.874;2023-07-20T01:43:31;17.90;99.90
13686;DHT22;6915;48.296;8.874;2023-07-20T01:45:59;17.80;99.90
13686;DHT22;6915;48.296;8.874;2023-07-20T01:48:30;17.80;99.90
13686;DHT22;6915;48.296;8.874;2023-07-20T01:51:00;17.70;99.90
13686;DHT22;6915;48.296;8.874;2023-07-20T01:53:28;17.70;99.90
13686;DHT22;6915;48.296;8.874;2023-07-20T01:55:58;17.70;99.90
13686;DHT22;6915;48.296;8.874;2023-07-20T01:58:27;17.60;99.90
13686;DHT22;6915;48.296;8.874;2023-07-20T02:00:55;17.50;99.90
13686;DHT22;6915;48.296;8.874;2023-07-20T02:03:24;17.40;99.90
13686;DHT22;6915;48.296;8.874;2023-07-20T02:05:54;17.30;99.90
13686;DHT22;6915;48.296;8.874;2023-07-20T02:08:25;17.30;99.90
13686;DHT22;6915;48.296;8.874;2023-07-20T02:10:54;17.20;99.90
13686;DHT22;6915;48.296;8.874;2023-07-20T02:13:22;17.10;99.90
13686;DHT22;6915;48.296;8.874;2023-07-20T02:15:51;17.20;99.90
13686;DHT22;6915;48.296;8.874;2023-07-20T02:18:19;17.00;99.90
13686;DHT22;6915;48.296;8.874;2023-07-20T02:20:48;16.90;99.90
13686;DHT22;6915;48.296;8.874;2023-07-20T02:23:16;16.90;99.90
13686;DHT22;6915;48.296;8.874;2023-07-20T02:25:47;16.60;99.90
13686;DHT22;6915;48.296;8.874;2023-07-20T02:28:16;16.60;99.90
13686;DHT22;6915;48.296;8.874;2023-07-20T02:30:44;16.60;99.90
13686;DHT22;6915;48.296;8.874;2023-07-20T02:33:13;16.60;99.90
13686;DHT22;6915;48.296;8.874;2023-07-20T02:35:42;16.40;99.90
13686;DHT22;6915;48.296;8.874;2023-07-20T02:38:10;16.30;99.90
13686;DHT22;6915;48.296;8.874;2023-07-20T02:40:40;16.40;99.90
13686;DHT22;6915;48.296;8.874;2023-07-20T02:43:10;16.20;99.90
13686;DHT22;6915;48.296;8.874;2023-07-20T02:45:43;16.10;99.90
13686;DHT22;6915;48.296;8.874;2023-07-20T02:48:11;15.90;99.90
13686;DHT22;6915;48.296;8.874;2023-07-20T02:50:40;15.90;99.90
13686;DHT22;6915;48.296;8.874;2023-07-20T02:53:09;15.90;99.90
13686;DHT22;6915;48.296;8.874;2023-07-20T02:55:38;15.80;99.90
13686;DHT22;6915;48.296;8.874;2023-07-20T02:58:06;15.70;99.90
13686;DHT22;6915;48.296;8.874;2023-07-20T03:00:36;15.70;99.90
13686;DHT22;6915;48.296;8.874;2023-07-20T03:03:05;15.70;99.90
13686;DHT22;6915;48.296;8.874;2023-07-20T03:05:37;15.70;99.90
13686;DHT22;6915;48.296;8.874;2023-07-20T03:08:07;15.70;99.90
13686;DHT22;6915;48.296;8.874;2023-07-20T03:10:40;15.70;99.90
13686;DHT22;6915;48.296;8.874;2023-07-20T03:13:13;15.60;99.90
13686;DHT22;6915;48.296;8.874;2023-07-20T03:15:45;15.60;99.90
13686;DHT22;6915;48.296;8.874;2023-07-20T03:18:13;15.50;99.90
13686;DHT22;6915;48.296;8.874;2023-07-20T03:20:42;15.50;99.90
13686;DHT22;6915;48.296;8.874;2023-07-20T03:23:10;15.50;99.90
13686;DHT22;6915;48.296;8.874;2023-07-20T03:25:39;15.40;99.90
13686;DHT22;6915;48.296;8.874;2023-07-20T03:28:08;15.40;99.90
13686;DHT22;6915;48.296;8.874;2023-07-20T03:30:36;15.40;99.90
13686;DHT22;6915;48.296;8.874;2023-07-20T03:33:06;15.30;99.90
13686;DHT22;6915;48.296;8.874;2023-07-20T03:35:35;15.20;99.90
13686;DHT22;6915;48.296;8.874;2023-07-20T03:38:03;15.20;99.90
13686;DHT22;6915;48.296;8.874;2023-07-20T03:40:32;15.20;99.90
13686;DHT22;6915;48.296;8.874;2023-07-20T03:43:01;15.20;99.90
13686;DHT22;6915;48.296;8.874;2023-07-20T03:45:30;15.10;99.90
13686;DHT22;6915;48.296;8.874;2023-07-20T03:47:59;15.10;29.00
13686;DHT22;6915;48.296;8.874;2023-07-20T03:50:29;15.00;99.90
13686;DHT22;6915;48.296;8.874;2023-07-20T03:52:57;15.00;99.90
13686;DHT22;6915;48.296;8.874;2023-07-20T03:55:26;14.90;99.90
13686;DHT22;6915;48.296;8.874;2023-07-20T03:57:55;14.80;99.90
13686;DHT22;6915;48.296;8.874;2023-07-20T04:00:26;15.00;99.90
13686;DHT22;6915;48.296;8.874;2023-07-20T04:02:55;15.00;99.90
13686;DHT22;6915;48.296;8.874;2023-07-20T04:05:23;15.00;99.90
13686;DHT22;6915;48.296;8.874;2023-07-20T04:07:54;14.90;99.90
13686;DHT22;6915;48.296;8.874;2023-07-20T04:10:23;14.90;99.90
13686;DHT22;6915;48.296;8.874;2023-07-20T04:12:52;14.90;99.90
13686;DHT22;6915;48.296;8.874;2023-07-20T04:15:21;14.90;99.90
13686;DHT22;6915;48.296;8.874;2023-07-20T04:17:49;14.90;99.90
13686;DHT22;6915;48.296;8.874;2023-07-20T04:20:18;15.00;99.90
13686;DHT22;6915;48.296;8.874;2023-07-20T04:22:46;15.10;99.90
13686;DHT22;6915;48.296;8.874;2023-07-20T04:25:17;15.00;99.90
13686;DHT22;6915;48.296;8.874;2023-07-20T04:27:45;14.90;99.90
13686;DHT22;6915;48.296;8.874;2023-07-20T04:30:16;15.00;99.90
13686;DHT22;6915;48.296;8.874;2023-07-20T04:32:46;15.20;99.90
13686;DHT22;6915;48.296;8.874;2023-07-20T04:35:26;15.30;99.90
13686;DHT22;6915;48.296;8.874;2023-07-20T04:38:06;15.50;99.90
13686;DHT22;6915;48.296;8.874;2023-07-20T04:40:37;15.70;99.90
13686;DHT22;6915;48.296;8.874;2023-07-20T04:43:05;16.00;99.90
13686;DHT22;6915;48.296;8.874;2023-07-20T04:45:34;16.20;99.90
13686;DHT22;6915;48.296;8.874;2023-07-20T04:48:02;16.70;99.90
13686;DHT22;6915;48.296;8.874;2023-07-20T04:50:31;16.60;99.90
13686;DHT22;6915;48.296;8.874;2023-07-20T04:53:00;16.90;99.90
13686;DHT22;6915;48.296;8.874;2023-07-20T04:55:29;17.00;99.90
13686;DHT22;6915;48.296;8.874;2023-07-20T04:57:59;16.90;99.90
13686;DHT22;6915;48.296;8.874;2023-07-20T05:00:29;17.10;99.90
13686;DHT22;6915;48.296;8.874;2023-07-20T05:02:58;17.20;99.90
13686;DHT22;6915;48.296;8.874;2023-07-20T05:05:27;17.20;99.90
13686;DHT22;6915;48.296;8.874;2023-07-20T05:07:55;17.20;99.90
13686;DHT22;6915;48.296;8.874;2023-07-20T05:10:24;17.30;99.90
13686;DHT22;6915;48.296;8.874;2023-07-20T05:12:53;17.30;99.90
13686;DHT22;6915;48.296;8.874;2023-07-20T05:15:23;17.50;99.90
13686;DHT22;6915;48.296;8.874;2023-07-20T05:17:51;17.50;99.90
13686;DHT22;6915;48.296;8.874;2023-07-20T05:20:22;17.70;99.90
13686;DHT22;6915;48.296;8.874;2023-07-20T05:22:50;17.60;99.90
13686;DHT22;6915;48.296;8.874;2023-07-20T05:25:20;17.60;99.90
13686;DHT22;6915;48.296;8.874;2023-07-20T05:27:50;17.50;99.90
13686;DHT22;6915;48.296;8.874;2023-07-20T05:30:21;17.50;99.90
13686;DHT22;6915;48.296;8.874;2023-07-20T05:32:50;17.60;99.90
13686;DHT22;6915;48.296;8.874;2023-07-20T05:35:21;17.70;99.90
13686;DHT22;6915;48.296;8.874;2023-07-20T05:37:49;17.80;99.90
13686;DHT22;6915;48.296;8.874;2023-07-20T05:40:18;17.90;99.90
13686;DHT22;6915;48.296;8.874;2023-07-20T05:42:48;18.00;99.90
13686;DHT22;6915;48.296;8.874;2023-07-20T05:45:19;18.00;99.90
13686;DHT22;6915;48.296;8.874;2023-07-20T05:47:49;18.10;99.90
13686;DHT22;6915;48.296;8.874;2023-07-20T05:50:18;18.10;99.90
13686;DHT22;6915;48.296;8.874;2023-07-20T05:52:47;18.20;99.90
13686;DHT22;6915;48.296;8.874;2023-07-20T05:55:16;18.20;99.90
13686;DHT22;6915;48.296;8.874;2023-07-20T05:57:45;18.30;99.90
13686;DHT22;6915;48.296;8.874;2023-07-20T06:00:16;18.30;99.90
13686;DHT22;6915;48.296;8.874;2023-07-20T06:02:46;18.70;99.90
13686;DHT22;6915;48.296;8.874;2023-07-20T06:05:17;18.80;99.90
13686;DHT22;6915;48.296;8.874;2023-07-20T06:07:48;18.80;99.90
13686;DHT22;6915;48.296;8.874;2023-07-20T06:10:17;18.70;99.90
13686;DHT22;6915;48.296;8.874;2023-07-20T06:12:45;18.70;99.90
13686;DHT22;6915;48.296;8.874;2023-07-20T06:15:27;18.90;99.90
13686;DHT22;6915;48.296;8.874;2023-07-20T06:17:56;19.00;99.90
13686;DHT22;6915;48.296;8.874;2023-07-20T06:20:27;19.20;99.90
13686;DHT22;6915;48.296;8.874;2023-07-20T06:22:56;19.50;99.90
13686;DHT22;6915;48.296;8.874;2023-07-20T06:25:24;19.50;99.90
13686;DHT22;6915;48.296;8.874;2023-07-20T06:27:54;19.60;99.90
13686;DHT22;6915;48.296;8.874;2023-07-20T06:30:25;19.70;99.90
13686;DHT22;6915;48.296;8.874;2023-07-20T06:32:54;19.70;99.90
13686;DHT22;6915;48.296;8.874;2023-07-20T06:35:22;19.70;99.90
13686;DHT22;6915;48.296;8.874;2023-07-20T06:37:52;19.80;99.90
13686;DHT22;6915;48.296;8.874;2023-07-20T06:40:22;19.90;99.90
13686;DHT22;6915;48.296;8.874;2023-07-20T06:42:50;20.00;99.90
13686;DHT22;6915;48.296;8.874;2023-07-20T06:45:19;20.00;99.90
13686;DHT22;6915;48.296;8.874;2023-07-20T06:47:47;19.90;99.90
13686;DHT22;6915;48.296;8.874;2023-07-20T06:50:16;20.00;99.90
13686;DHT22;6915;48.296;8.874;2023-07-20T06:52:45;20.10;99.90
13686;DHT22;6915;48.296;8.874;2023-07-20T06:55:17;20.10;99.90
13686;DHT22;6915;48.296;8.874;2023-07-20T06:57:45;20.20;99.90
13686;DHT22;6915;48.296;8.874;2023-07-20T07:00:15;20.50;99.90
13686;DHT22;6915;48.296;8.874;2023-07-20T07:02:44;20.60;99.90
13686;DHT22;6915;48.296;8.874;2023-07-20T07:05:14;20.70;99.90
13686;DHT22;6915;48.296;8.874;2023-07-20T07:07:43;20.70;99.90
13686;DHT22;6915;48.296;8.874;2023-07-20T07:10:12;20.90;99.90
13686;DHT22;6915;48.296;8.874;2023-07-20T07:12:42;21.00;99.90
13686;DHT22;6915;48.296;8.874;2023-07-20T07:15:12;21.10;99.90
13686;DHT22;6915;48.296;8.874;2023-07-20T07:17:40;21.20;99.90
13686;DHT22;6915;48.296;8.874;2023-07-20T07:20:11;21.50;99.90
13686;DHT22;6915;48.296;8.874;2023-07-20T07:22:39;21.60;99.90
13686;DHT22;6915;48.296;8.874;2023-07-20T07:25:12;21.70;99.90
13686;DHT22;6915;48.296;8.874;2023-07-20T07:27:43;21.70;99.90
13686;DHT22;6915;48.296;8.874;2023-07-20T07:30:13;21.80;99.90
13686;DHT22;6915;48.296;8.874;2023-07-20T07:32:42;22.10;99.90
13686;DHT22;6915;48.296;8.874;2023-07-20T07:35:13;22.10;1.00
13686;DHT22;6915;48.296;8.874;2023-07-20T07:37:42;22.50;1.00
13686;DHT22;6915;48.296;8.874;2023-07-20T07:40:12;22.80;1.00
13686;DHT22;6915;48.296;8.874;2023-07-20T07:42:40;23.00;99.90
13686;DHT22;6915;48.296;8.874;2023-07-20T07:45:11;23.30;99.90
13686;DHT22;6915;48.296;8.874;2023-07-20T07:47:41;23.40;99.90
13686;DHT22;6915;48.296;8.874;2023-07-20T07:50:11;23.50;99.90
13686;DHT22;6915;48.296;8.874;2023-07-20T07:52:39;23.60;99.90
13686;DHT22;6915;48.296;8.874;2023-07-20T07:55:08;23.60;99.90
13686;DHT22;6915;48.296;8.874;2023-07-20T07:57:37;23.80;99.90
13686;DHT22;6915;48.296;8.874;2023-07-20T08:00:07;23.80;99.90
13686;DHT22;6915;48.296;8.874;2023-07-20T08:02:41;24.00;99.90
13686;DHT22;6915;48.296;8.874;2023-07-20T08:05:10;24.00;99.90
13686;DHT22;6915;48.296;8.874;2023-07-20T08:07:39;24.00;99.90
13686;DHT22;6915;48.296;8.874;2023-07-20T08:10:09;24.00;99.90
13686;DHT22;6915;48.296;8.874;2023-07-20T08:12:38;24.30;99.90
13686;DHT22;6915;48.296;8.874;2023-07-20T08:15:10;24.30;99.90
13686;DHT22;6915;48.296;8.874;2023-07-20T08:17:38;24.20;99.90
13686;DHT22;6915;48.296;8.874;2023-07-20T08:20:06;23.90;99.90
13686;DHT22;6915;48.296;8.874;2023-07-20T08:22:37;23.70;99.90
13686;DHT22;6915;48.296;8.874;2023-07-20T08:25:06;24.00;99.90
13686;DHT22;6915;48.296;8.874;2023-07-20T08:27:36;24.30;99.90
13686;DHT22;6915;48.296;8.874;2023-07-20T08:30:06;24.60;99.90
13686;DHT22;6915;48.296;8.874;2023-07-20T08:32:35;24.60;99.90
13686;DHT22;6915;48.296;8.874;2023-07-20T08:35:06;24.60;99.90
13686;DHT22;6915;48.296;8.874;2023-07-20T08:37:35;24.70;99.90
13686;DHT22;6915;48.296;8.874;2023-07-20T08:40:04;24.70;99.90
13686;DHT22;6915;48.296;8.874;2023-07-20T08:42:36;24.40;99.90
13686;DHT22;6915;48.296;8.874;2023-07-20T08:45:09;24.10;99.90
13686;DHT22;6915;48.296;8.874;2023-07-20T08:47:38;23.50;99.90
13686;DHT22;6915;48.296;8.874;2023-07-20T08:50:11;23.10;99.90
13686;DHT22;6915;48.296;8.874;2023-07-20T08:52:41;23.00;99.90
13686;DHT22;6915;48.296;8.874;2023-07-20T08:55:11;23.00;99.90
13686;DHT22;6915;48.296;8.874;2023-07-20T08:57:42;23.20;99.90
13686;DHT22;6915;48.296;8.874;2023-07-20T09:00:19;23.30;99.90
13686;DHT22;6915;48.296;8.874;2023-07-20T09:02:51;23.40;99.90
13686;DHT22;6915;48.296;8.874;2023-07-20T09:05:23;23.00;99.90
13686;DHT22;6915;48.296;8.874;2023-07-20T09:07:55;22.70;99.90
13686;DHT22;6915;48.296;8.874;2023-07-20T09:10:25;22.60;99.90
13686;DHT22;6915;48.296;8.874;2023-07-20T09:12:54;22.70;99.90
13686;DHT22;6915;48.296;8.874;2023-07-20T09:15:24;22.70;99.90
13686;DHT22;6915;48.296;8.874;2023-07-20T09:17:53;22.70;99.90
13686;DHT22;6915;48.296;8.874;2023-07-20T09:20:24;22.80;99.90
13686;DHT22;6915;48.296;8.874;2023-07-20T09:22:53;23.40;99.90
13686;DHT22;6915;48.296;8.874;2023-07-20T09:25:22;23.70;99.90
13686;DHT22;6915;48.296;8.874;2023-07-20T09:27:51;23.80;99.90
13686;DHT22;6915;48.296;8.874;2023-07-20T09:30:26;24.00;99.90
13686;DHT22;6915;48.296;8.874;2023-07-20T09:32:55;24.00;99.90
13686;DHT22;6915;48.296;8.874;2023-07-20T09:35:26;23.90;99.90
13686;DHT22;6915;48.296;8.874;2023-07-20T09:37:57;23.80;99.90
13686;DHT22;6915;48.296;8.874;2023-07-20T09:40:27;23.80;99.90
13686;DHT22;6915;48.296;8.874;2023-07-20T09:42:58;23.80;99.90
13686;DHT22;6915;48.296;8.874;2023-07-20T09:45:31;23.90;99.90
13686;DHT22;6915;48.296;8.874;2023-07-20T09:48:05;23.70;99.90
13686;DHT22;6915;48.296;8.874;2023-07-20T09:50:35;23.50;99.90
13686;DHT22;6915;48.296;8.874;2023-07-20T09:53:07;23.30;99.90
13686;DHT22;6915;48.296;8.874;2023-07-20T09:55:38;23.60;99.90
13686;DHT22;6915;48.296;8.874;2023-07-20T09:58:07;24.30;99.90
13686;DHT22;6915;48.296;8.874;2023-07-20T10:00:35;24.40;90.60
13686;DHT22;6915;48.296;8.874;2023-07-20T10:03:06;24.20;90.60
13686;DHT22;6915;48.296;8.874;2023-07-20T10:05:39;24.10;99.90
13686;DHT22;6915;48.296;8.874;2023-07-20T10:08:12;23.90;94.10
13686;DHT22;6915;48.296;8.874;2023-07-20T10:10:43;24.20;78.50
13686;DHT22;6915;48.296;8.874;2023-07-20T10:13:17;24.20;62.40
13686;DHT22;6915;48.296;8.874;2023-07-20T10:15:50;23.80;70.10
13686;DHT22;6915;48.296;8.874;2023-07-20T10:18:20;24.10;77.20
13686;DHT22;6915;48.296;8.874;2023-07-20T10:20:54;24.90;94.00
13686;DHT22;6915;48.296;8.874;2023-07-20T10:23:23;25.40;39.20
13686;DHT22;6915;48.296;8.874;2023-07-20T10:25:52;25.70;80.90
13686;DHT22;6915;48.296;8.874;2023-07-20T10:28:22;25.90;69.80
13686;DHT22;6915;48.296;8.874;2023-07-20T10:30:52;25.90;39.20
13686;DHT22;6915;48.296;8.874;2023-07-20T10:33:22;25.30;22.20
13686;DHT22;6915;48.296;8.874;2023-07-20T10:35:57;24.80;20.30
13686;DHT22;6915;48.296;8.874;2023-07-20T10:38:42;24.30;60.00
13686;DHT22;6915;48.296;8.874;2023-07-20T10:41:17;24.70;29.50
13686;DHT22;6915;48.296;8.874;2023-07-20T10:43:46;24.80;31.70
13686;DHT22;6915;48.296;8.874;2023-07-20T10:46:16;24.80;28.20
13686;DHT22;6915;48.296;8.874;2023-07-20T10:49:02;25.10;15.70
13686;DHT22;6915;48.296;8.874;2023-07-20T10:51:39;25.20;22.90
13686;DHT22;6915;48.296;8.874;2023-07-20T10:54:08;25.10;29.10
13686;DHT22;6915;48.296;8.874;2023-07-20T10:56:37;25.40;24.80
13686;DHT22;6915;48.296;8.874;2023-07-20T10:59:18;25.90;20.60
13686;DHT22;6915;48.296;8.874;2023-07-20T11:01:49;26.30;18.40
13686;DHT22;6915;48.296;8.874;2023-07-20T11:04:18;26.50;8.40
13686;DHT22;6915;48.296;8.874;2023-07-20T11:06:57;26.20;1.00
13686;DHT22;6915;48.296;8.874;2023-07-20T11:09:25;25.70;1.00
13686;DHT22;6915;48.296;8.874;2023-07-20T11:12:09;25.70;1.00
13686;DHT22;6915;48.296;8.874;2023-07-20T11:14:42;25.30;1.00
13686;DHT22;6915;48.296;8.874;2023-07-20T11:17:14;24.70;17.80
13686;DHT22;6915;48.296;8.874;2023-07-20T11:19:50;24.60;26.70
13686;DHT22;6915;48.296;8.874;2023-07-20T11:22:25;25.10;17.70
13686;DHT22;6915;48.296;8.874;2023-07-20T11:24:57;25.60;5.90
13686;DHT22;6915;48.296;8.874;2023-07-20T11:27:26;25.60;2.20
13686;DHT22;6915;48.296;8.874;2023-07-20T11:29:55;25.50;1.00
13686;DHT22;6915;48.296;8.874;2023-07-20T11:32:25;25.90;1.00
13686;DHT22;6915;48.296;8.874;2023-07-20T11:34:54;26.30;1.00
13686;DHT22;6915;48.296;8.874;2023-07-20T11:37:26;26.30;1.00
13686;DHT22;6915;48.296;8.874;2023-07-20T11:39:57;26.40;1.00
13686;DHT22;6915;48.296;8.874;2023-07-20T11:42:26;26.00;1.00
13686;DHT22;6915;48.296;8.874;2023-07-20T11:44:55;25.60;1.00
13686;DHT22;6915;48.296;8.874;2023-07-20T11:47:31;25.90;1.00
13686;DHT22;6915;48.296;8.874;2023-07-20T11:50:03;26.40;1.00
13686;DHT22;6915;48.296;8.874;2023-07-20T11:52:34;26.60;1.00
13686;DHT22;6915;48.296;8.874;2023-07-20T11:55:05;26.30;1.00
13686;DHT22;6915;48.296;8.874;2023-07-20T16:21:55;26.70;1.00
13686;DHT22;6915;48.296;8.874;2023-07-20T16:24:23;26.90;1.00
13686;DHT22;6915;48.296;8.874;2023-07-20T16:26:52;27.00;1.00
13686;DHT22;6915;48.296;8.874;2023-07-20T16:29:20;27.10;1.00
13686;DHT22;6915;48.296;8.874;2023-07-20T16:31:51;27.10;1.00
13686;DHT22;6915;48.296;8.874;2023-07-20T17:05:20;26.20;1.00
13686;DHT22;6915;48.296;8.874;2023-07-20T17:07:49;26.00;1.00
13686;DHT22;6915;48.296;8.874;2023-07-20T17:10:24;25.70;1.00
13686;DHT22;6915;48.296;8.874;2023-07-20T17:12:52;25.50;1.00
13686;DHT22;6915;48.296;8.874;2023-07-20T17:15:21;25.40;1.00
